Woodbine, Iowa
Current Conditions -  °F | °C
As of 3:15 PM on Monday 24 Nov 2014 (Local Time) from KHNR Reporting Station
Overcast Overcast  
Wind Chill: -9°   Ceiling: 2600
Heat Index: -2°   Visibility: 10mi
Dew Point: -7°   Wind: 20mph
Humidity: 69%   Direction: 310°NW
Pressure: 29.8"   Gusts: 33mph
Location:  41.74°N, 95.7°W
Report Text: KHNR 242115Z AUTO 31017G29KT 10SM BKN026 OVC031 M02/M07 A2980 RMK AO2
Loading
Personal Weather Stations






























Interactive Weather Map New forecast layout! Learn more

10-Day Weather Forecast

Advertisements
Track Severe Weather on mobile